createdAt,value
2018-10-17T00:00:16.262Z,95787.3
2018-10-17T00:01:18.988Z,95786.1
2018-10-17T00:02:21.133Z,95782.6
2018-10-17T00:03:23.568Z,95784.1
2018-10-17T00:04:25.993Z,95786.1
2018-10-17T00:05:28.426Z,95787.3
2018-10-17T00:06:30.588Z,95782.4
2018-10-17T00:07:32.708Z,95782.4
2018-10-17T00:08:34.856Z,95783.7
2018-10-17T00:09:37.288Z,95783
2018-10-17T00:10:39.722Z,95784.5
2018-10-17T00:11:41.873Z,95784.4
2018-10-17T00:12:44.298Z,95782.5
2018-10-17T00:13:46.725Z,95783.3
2018-10-17T00:14:49.163Z,95782.6
2018-10-17T00:15:51.581Z,95782.1
2018-10-17T00:16:53.806Z,95777.1
2018-10-17T00:17:56.218Z,95777.6
2018-10-17T00:18:58.845Z,95778.9
2018-10-17T00:20:01.190Z,95779.6
2018-10-17T00:21:03.615Z,95781
2018-10-17T00:22:05.776Z,95780.4
2018-10-17T00:23:08.455Z,95776.7
2018-10-17T00:24:11.073Z,95775.8
2018-10-17T00:25:13.945Z,95775.8
2018-10-17T00:26:16.568Z,95773.5
2018-10-17T00:27:18.993Z,95771.6
2018-10-17T00:28:21.438Z,95769.6
2018-10-17T00:29:23.864Z,95769.1
2018-10-17T00:30:25.753Z,95766.6
2018-10-17T00:31:28.189Z,95769.1
2018-10-17T00:32:30.337Z,95774.4
2018-10-17T00:33:32.764Z,95769.1
2018-10-17T00:34:35.184Z,95775.3
2018-10-17T00:35:37.339Z,95772.6
2018-10-17T00:36:39.755Z,95775.4
2018-10-17T00:37:42.184Z,95771.1
2018-10-17T00:38:44.608Z,95772.7
2018-10-17T00:39:47.028Z,95768
2018-10-17T00:40:49.452Z,95770.6
2018-10-17T00:41:51.876Z,95771.6
2018-10-17T00:42:53.849Z,95770.2
2018-10-17T00:43:56.006Z,95770.2
2018-10-17T00:44:58.154Z,95771.3
2018-10-17T00:46:00.308Z,95772.2
2018-10-17T00:47:02.947Z,95771.2
2018-10-17T00:48:05.535Z,95774.2
2018-10-17T00:49:08.401Z,95776.8
2018-10-17T00:50:10.337Z,95772.7
2018-10-17T00:51:12.496Z,95773.8
2018-10-17T00:52:14.650Z,95777
2018-10-17T00:53:17.104Z,95779.5
2018-10-17T00:54:19.262Z,95778.5
2018-10-17T00:55:21.141Z,95776.6
2018-10-17T00:56:23.307Z,95775.3
2018-10-17T00:57:25.731Z,95778.1
2018-10-17T00:58:28.157Z,95781.2
2018-10-17T00:59:30.320Z,95778.1
2018-10-17T01:00:32.749Z,95774.8
2018-10-17T01:01:35.163Z,95775.2
2018-10-17T01:02:36.784Z,95777.6
2018-10-17T01:03:39.208Z,95771.8
2018-10-17T01:04:41.364Z,95773.5
2018-10-17T01:05:43.800Z,95767.6
2018-10-17T01:06:46.375Z,95770
2018-10-17T01:07:48.813Z,95767.2
2018-10-17T01:08:50.964Z,95763.6
2018-10-17T01:09:53.135Z,95765.8
2018-10-17T01:10:55.370Z,95769.3
2018-10-17T01:11:57.794Z,95765.3
2018-10-17T01:13:00.557Z,95763.6
2018-10-17T01:14:03.004Z,95764.4
2018-10-17T01:15:05.144Z,95757.6
2018-10-17T01:16:07.565Z,95759.9
2018-10-17T01:17:10.508Z,95761.4
2018-10-17T01:18:13.130Z,95756.4
2018-10-17T01:19:15.839Z,95756.5
2018-10-17T01:20:18.266Z,95757.3
2018-10-17T01:21:20.418Z,95756.2
2018-10-17T01:22:22.580Z,95754
2018-10-17T01:23:25.023Z,95752.6
2018-10-17T01:24:27.435Z,95754.4
2018-10-17T01:25:29.855Z,95755.2
2018-10-17T01:26:32.285Z,95752.3
2018-10-17T01:27:34.169Z,95757.1
2018-10-17T01:28:36.598Z,95758.3
2018-10-17T01:29:39.030Z,95755.4
2018-10-17T01:30:41.484Z,95756.6
2018-10-17T01:31:43.920Z,95756.2
2018-10-17T01:32:46.349Z,95756
2018-10-17T01:33:48.771Z,95755.3
2018-10-17T01:34:50.900Z,95754.5
2018-10-17T01:35:53.331Z,95754.3
2018-10-17T01:36:55.588Z,95753.2
2018-10-17T01:37:58.022Z,95758.6
2018-10-17T01:39:00.453Z,95757
2018-10-17T01:40:02.871Z,95758.8
2018-10-17T01:41:05.108Z,95758.5
2018-10-17T01:42:07.650Z,95754.9
2018-10-17T01:43:10.347Z,95755.5
2018-10-17T01:44:13.068Z,95753.2
2018-10-17T01:45:14.928Z,95751.1
2018-10-17T01:46:16.809Z,95754.4
2018-10-17T01:47:19.229Z,95752.9
2018-10-17T01:48:21.649Z,95749.3
2018-10-17T01:49:23.786Z,95747.4
2018-10-17T01:50:26.219Z,95752.4
2018-10-17T01:51:28.633Z,95751.4
2018-10-17T01:52:30.789Z,95746.1
2018-10-17T01:53:33.223Z,95747
2018-10-17T01:54:35.379Z,95744.2
2018-10-17T01:55:37.801Z,95742.9
2018-10-17T01:56:40.222Z,95743.5
2018-10-17T01:57:42.659Z,95746.2
2018-10-17T01:58:45.083Z,95747.5
2018-10-17T01:59:47.509Z,95748.8
2018-10-17T02:00:49.933Z,95746.8
2018-10-17T02:01:52.087Z,95743.9
2018-10-17T02:02:54.237Z,95743.7
2018-10-17T02:03:56.660Z,95748.8
2018-10-17T02:04:59.227Z,95747.3
2018-10-17T02:06:01.666Z,95746.3
2018-10-17T02:07:04.292Z,95747.6
2018-10-17T02:08:06.513Z,95746.8
2018-10-17T02:09:08.645Z,95747.3
2018-10-17T02:10:11.072Z,95742.3
2018-10-17T02:11:13.791Z,95745.3
2018-10-17T02:12:16.426Z,95747.7
2018-10-17T02:13:18.844Z,95740.8
2018-10-17T02:14:21.278Z,95745.6
2018-10-17T02:15:23.699Z,95743.9
2018-10-17T02:16:26.128Z,95743.4
2018-10-17T02:17:28.545Z,95747.7
2018-10-17T02:18:30.709Z,95743.7
2018-10-17T02:19:33.133Z,95742.9
2018-10-17T02:20:35.565Z,95745.1
2018-10-17T02:21:37.996Z,95744.4
2018-10-17T02:22:40.419Z,95744.3
2018-10-17T02:23:42.549Z,95748.8
2018-10-17T02:24:44.708Z,95749.1
2018-10-17T02:25:47.120Z,95742.8
2018-10-17T02:26:49.543Z,95745.8
2018-10-17T02:27:51.716Z,95743.4
2018-10-17T02:28:54.210Z,95743.7
2018-10-17T02:29:57.048Z,95741.1
2018-10-17T02:30:59.440Z,95743.4
2018-10-17T02:32:01.229Z,95743.7
2018-10-17T02:33:03.656Z,95740.6
2018-10-17T02:34:05.811Z,95742
2018-10-17T02:35:08.726Z,95738.9
2018-10-17T02:36:11.268Z,95738.4
2018-10-17T02:37:13.944Z,95741.4
2018-10-17T02:38:16.528Z,95737
2018-10-17T02:39:18.147Z,95735.5
2018-10-17T02:40:20.588Z,95739.2
2018-10-17T02:41:22.927Z,95740.6
2018-10-17T02:42:25.390Z,95739.1
2018-10-17T02:43:27.826Z,95737.8
2018-10-17T02:44:30.245Z,95738.3
2018-10-17T02:45:32.688Z,95734.1
2018-10-17T02:46:35.117Z,95736.8
2018-10-17T02:47:37.542Z,95733.1
2018-10-17T02:48:39.985Z,95739.6
2018-10-17T02:49:41.851Z,95736.1
2018-10-17T02:50:43.979Z,95740.8
2018-10-17T02:51:46.119Z,95739.6
2018-10-17T02:52:48.546Z,95742.1
2018-10-17T02:53:50.967Z,95738.2
2018-10-17T02:54:53.492Z,95744.4
2018-10-17T02:55:55.984Z,95740
2018-10-17T02:56:58.189Z,95737.3
2018-10-17T02:58:00.338Z,95741.3
2018-10-17T02:59:02.673Z,95743.2
2018-10-17T03:00:04.989Z,95741
2018-10-17T03:01:07.416Z,95741.1
2018-10-17T03:02:10.090Z,95744.1
2018-10-17T03:03:12.247Z,95743.7
2018-10-17T03:04:14.676Z,95745.2
2018-10-17T03:05:17.486Z,95746.8
2018-10-17T03:06:20.152Z,95748.5
2018-10-17T03:07:22.582Z,95746.7
2018-10-17T03:08:25.052Z,95749.2
2018-10-17T03:09:27.222Z,95744.1
2018-10-17T03:10:29.654Z,95745.5
2018-10-17T03:11:31.804Z,95751.1
2018-10-17T03:12:33.961Z,95745
2018-10-17T03:13:36.399Z,95746.1
2018-10-17T03:14:38.560Z,95746.7
2018-10-17T03:15:41.000Z,95745.4
2018-10-17T03:16:43.435Z,95745.8
2018-10-17T03:17:45.883Z,95747.2
2018-10-17T03:18:48.056Z,95745.7
2018-10-17T03:19:50.504Z,95742.1
2018-10-17T03:20:52.937Z,95745.1
2018-10-17T03:21:55.100Z,95747.7
2018-10-17T03:22:57.784Z,95746.7
2018-10-17T03:24:00.218Z,95747.2
2018-10-17T03:25:02.919Z,95749.2
2018-10-17T03:26:05.114Z,95748.5
2018-10-17T03:27:07.547Z,95749.5
2018-10-17T03:28:10.297Z,95745.6
2018-10-17T03:29:13.372Z,95746.3
2018-10-17T03:30:15.529Z,95746.7
2018-10-17T03:31:18.181Z,95746.4
2018-10-17T03:32:20.768Z,95748.9
2018-10-17T03:33:23.196Z,95748.7
2018-10-17T03:34:25.333Z,95748.4
2018-10-17T03:35:27.489Z,95747.1
2018-10-17T03:36:29.909Z,95753.1
2018-10-17T03:37:32.338Z,95751
2018-10-17T03:38:34.767Z,95748.2
2018-10-17T03:39:36.367Z,95753.3
2018-10-17T03:40:38.512Z,95751.3
2018-10-17T03:41:40.682Z,95754.5
2018-10-17T03:42:43.106Z,95749.4
2018-10-17T03:43:45.537Z,95748
2018-10-17T03:44:48.013Z,95749.4
2018-10-17T03:45:50.182Z,95747.1
2018-10-17T03:46:52.368Z,95749.2
2018-10-17T03:47:54.811Z,95752.6
2018-10-17T03:48:57.491Z,95749.7
2018-10-17T03:50:00.139Z,95749.7
2018-10-17T03:51:02.371Z,95748
2018-10-17T03:52:04.829Z,95746.6
2018-10-17T03:53:07.462Z,95751.4
2018-10-17T03:54:09.842Z,95749.7
2018-10-17T03:55:12.258Z,95745.6
2018-10-17T03:56:14.891Z,95748.5
2018-10-17T03:57:16.799Z,95749.2
2018-10-17T03:58:19.010Z,95742.5
2018-10-17T03:59:22.388Z,95744.9
2018-10-17T04:00:25.012Z,95747.8
2018-10-17T04:01:26.894Z,95748.3
2018-10-17T04:02:29.054Z,95751.6
2018-10-17T04:03:30.921Z,95751
2018-10-17T04:04:32.810Z,95753.9
2018-10-17T04:05:35.249Z,95752.9
2018-10-17T04:06:37.425Z,95756.8
2018-10-17T04:07:39.866Z,95754.8
2018-10-17T04:08:42.310Z,95754.3
2018-10-17T04:09:44.781Z,95750.3
2018-10-17T04:10:46.966Z,95754.4
2018-10-17T04:11:49.417Z,95753.4
2018-10-17T04:12:51.934Z,95751.6
2018-10-17T04:13:54.361Z,95751.8
2018-10-17T04:14:56.562Z,95750.4
2018-10-17T04:15:58.994Z,95744.7
2018-10-17T04:17:01.680Z,95741
2018-10-17T04:18:04.204Z,95744.7
2018-10-17T04:19:06.848Z,95739.9
2018-10-17T04:20:09.075Z,95739.4
2018-10-17T04:21:11.509Z,95738.8
2018-10-17T04:22:13.937Z,95737.7
2018-10-17T04:23:16.430Z,95739.8
2018-10-17T04:24:18.666Z,95737.7
2018-10-17T04:25:21.100Z,95738.8
2018-10-17T04:26:23.533Z,95737.6
2018-10-17T04:27:25.399Z,95737.1
2018-10-17T04:28:27.866Z,95736.2
2018-10-17T04:29:30.283Z,95738.9
2018-10-17T04:30:32.160Z,95731.9
2018-10-17T04:31:34.325Z,95734.1
2018-10-17T04:32:36.184Z,95738.5
2018-10-17T04:33:38.616Z,95734.8
2018-10-17T04:34:41.055Z,95737.4
2018-10-17T04:35:43.208Z,95736.5
2018-10-17T04:36:45.649Z,95736.1
2018-10-17T04:37:48.073Z,95740
2018-10-17T04:38:50.505Z,95737.9
2018-10-17T04:39:52.680Z,95739
2018-10-17T04:40:55.231Z,95740.4
2018-10-17T04:41:57.664Z,95738.5
2018-10-17T04:43:00.254Z,95738.5
2018-10-17T04:44:02.729Z,95741
2018-10-17T04:45:04.883Z,95736.1
2018-10-17T04:46:07.316Z,95736.3
2018-10-17T04:47:09.680Z,95733.8
2018-10-17T04:48:12.277Z,95737.6
2018-10-17T04:49:14.768Z,95735.6
2018-10-17T04:50:17.483Z,95740.7
2018-10-17T04:51:19.908Z,95740.7
2018-10-17T04:52:22.065Z,95741.5
2018-10-17T04:53:23.957Z,95738.6
2018-10-17T04:54:25.855Z,95742.6
2018-10-17T04:55:28.009Z,95741.6
2018-10-17T04:56:30.450Z,95739
2018-10-17T04:57:32.941Z,95738.7
2018-10-17T04:58:34.903Z,95745.5
2018-10-17T04:59:37.113Z,95744.7
2018-10-17T05:00:39.544Z,95747.2
2018-10-17T05:01:41.985Z,95750.9
2018-10-17T05:02:44.137Z,95749
2018-10-17T05:03:46.302Z,95748.6
2018-10-17T05:04:48.459Z,95750.4
2018-10-17T05:05:50.892Z,95748.2
2018-10-17T05:06:53.614Z,95750.3
2018-10-17T05:07:56.299Z,95746.2
2018-10-17T05:08:58.435Z,95749.3
2018-10-17T05:10:00.876Z,95751
2018-10-17T05:11:03.757Z,95748.9
2018-10-17T05:12:06.348Z,95750.2
2018-10-17T05:13:08.827Z,95755.4
2018-10-17T05:14:11.532Z,95751.1
2018-10-17T05:15:13.954Z,95754
2018-10-17T05:16:16.150Z,95755.4
2018-10-17T05:17:18.592Z,95754
2018-10-17T05:18:20.754Z,95752.7
2018-10-17T05:19:22.900Z,95756.1
2018-10-17T05:20:25.344Z,95757.2
2018-10-17T05:21:27.772Z,95756.3
2018-10-17T05:22:30.207Z,95758.9
2018-10-17T05:23:32.352Z,95758.3
2018-10-17T05:24:34.784Z,95755.3
2018-10-17T05:25:37.232Z,95758.9
2018-10-17T05:26:39.400Z,95759.6
2018-10-17T05:27:41.568Z,95763.1
2018-10-17T05:28:44.008Z,95761.2
2018-10-17T05:29:46.832Z,95758.5
2018-10-17T05:30:49.481Z,95761.7
2018-10-17T05:31:51.917Z,95761.3
2018-10-17T05:32:54.075Z,95762.8
2018-10-17T05:33:56.508Z,95763.6
2018-10-17T05:34:59.112Z,95762.9
2018-10-17T05:36:01.331Z,95765
2018-10-17T05:37:04.072Z,95764.3
2018-10-17T05:38:07.125Z,95762.2
2018-10-17T05:39:09.422Z,95767.2
2018-10-17T05:40:11.854Z,95766.5
2018-10-17T05:41:14.725Z,95768.1
2018-10-17T05:42:17.293Z,95767.8
2018-10-17T05:43:19.455Z,95764.4
2018-10-17T05:44:21.806Z,95771.1
2018-10-17T05:45:23.998Z,95767.1
2018-10-17T05:46:26.424Z,95766.8
2018-10-17T05:47:28.593Z,95765.5
2018-10-17T05:48:30.762Z,95769.7
2018-10-17T05:49:33.189Z,95763.8
2018-10-17T05:50:35.338Z,95768.2
2018-10-17T05:51:37.777Z,95769.6
2018-10-17T05:52:40.203Z,95766.6
2018-10-17T05:53:42.658Z,95768
2018-10-17T05:54:45.087Z,95769
2018-10-17T05:55:47.508Z,95771.6
2018-10-17T05:56:49.938Z,95771.7
2018-10-17T05:57:52.368Z,95775.6
2018-10-17T05:58:54.847Z,95776.5
2018-10-17T05:59:57.299Z,95778.8
2018-10-17T06:00:59.912Z,95778.5
2018-10-17T06:02:03.155Z,95779.1
2018-10-17T06:03:05.269Z,95778.4
2018-10-17T06:04:07.696Z,95778.6
2018-10-17T06:05:10.212Z,95778.2
2018-10-17T06:06:12.815Z,95779.4
2018-10-17T06:07:15.770Z,95781.4
2018-10-17T06:08:18.195Z,95781.6
2018-10-17T06:09:20.641Z,95781.4
2018-10-17T06:10:23.709Z,95781.6
2018-10-17T06:11:26.409Z,95782.9
2018-10-17T06:12:28.840Z,95780.2
2018-10-17T06:13:31.265Z,95784.8
2018-10-17T06:14:33.422Z,95789.5
2018-10-17T06:15:35.857Z,95785.2
2018-10-17T06:16:38.458Z,95788.6
2018-10-17T06:17:40.639Z,95790.1
2018-10-17T06:18:43.078Z,95789.3
2018-10-17T06:19:45.519Z,95789
2018-10-17T06:20:47.963Z,95791.4
2018-10-17T06:21:50.413Z,95789.3
2018-10-17T06:22:52.924Z,95788.9
2018-10-17T06:23:54.810Z,95791.7
2018-10-17T06:24:57.402Z,95790.1
2018-10-17T06:25:59.900Z,95787
2018-10-17T06:27:02.050Z,95788.1
2018-10-17T06:28:04.522Z,95788.8
2018-10-17T06:29:07.130Z,95788.4
2018-10-17T06:30:09.805Z,95788.9
2018-10-17T06:31:12.631Z,95788.9
2018-10-17T06:32:15.338Z,95787.8
2018-10-17T06:33:17.499Z,95788.2
2018-10-17T06:34:20.127Z,95787.6
2018-10-17T06:35:22.790Z,95790.7
2018-10-17T06:36:25.219Z,95789.3
2018-10-17T06:37:27.408Z,95788.9
2018-10-17T06:38:29.841Z,95789.3
2018-10-17T06:39:32.265Z,95789.1
2018-10-17T06:40:34.698Z,95794.5
2018-10-17T06:41:36.577Z,95791.8
2018-10-17T06:42:39.002Z,95790.6
2018-10-17T06:43:42.141Z,95793.8
2018-10-17T06:44:44.962Z,95795.1
2018-10-17T06:45:47.393Z,95793.5
2018-10-17T06:46:49.819Z,95796.5
2018-10-17T06:47:52.251Z,95797.5
2018-10-17T06:48:54.822Z,95794.4
2018-10-17T06:49:57.315Z,95792.5
2018-10-17T06:50:59.551Z,95793.7
2018-10-17T06:52:02.022Z,95794.3
2018-10-17T06:53:04.742Z,95793.5
2018-10-17T06:54:07.926Z,95790.3
2018-10-17T06:55:10.855Z,95793.8
2018-10-17T06:56:13.103Z,95791.7
2018-10-17T06:57:15.533Z,95794.2
2018-10-17T06:58:17.947Z,95793.8
2018-10-17T06:59:20.384Z,95792.9
2018-10-17T07:00:22.823Z,95792.4
2018-10-17T07:01:25.251Z,95790.2
2018-10-17T07:02:27.940Z,95793.8
2018-10-17T07:03:30.105Z,95793.5
2018-10-17T07:04:32.534Z,95791.4
2018-10-17T07:05:34.958Z,95787.5
2018-10-17T07:06:37.377Z,95788.8
2018-10-17T07:07:39.548Z,95790.1
2018-10-17T07:08:42.085Z,95790.4
2018-10-17T07:09:44.262Z,95790.1
2018-10-17T07:10:46.689Z,95793.2
2018-10-17T07:11:49.140Z,95792.7
2018-10-17T07:12:51.326Z,95792.3
2018-10-17T07:13:53.781Z,95792.2
2018-10-17T07:14:56.205Z,95789.4
2018-10-17T07:15:59.130Z,95792.8
2018-10-17T07:17:01.681Z,95792.6
2018-10-17T07:18:04.213Z,95791.5
2018-10-17T07:19:07.044Z,95793
2018-10-17T07:20:09.620Z,95790.4
2018-10-17T07:21:12.050Z,95790.9
2018-10-17T07:22:13.931Z,95790.1
2018-10-17T07:23:16.592Z,95793.2
2018-10-17T07:24:19.229Z,95790.1
2018-10-17T07:25:21.409Z,95788.1
2018-10-17T07:26:23.860Z,95792.9
2018-10-17T07:27:26.016Z,95792.2
2018-10-17T07:28:28.449Z,95791.9
2018-10-17T07:29:31.678Z,95796
2018-10-17T07:30:34.546Z,95795
2018-10-17T07:31:36.969Z,95797.3
2018-10-17T07:32:39.399Z,95798.1
2018-10-17T07:33:41.829Z,95794.7
2018-10-17T07:34:43.733Z,95797
2018-10-17T07:35:46.733Z,95793.5
2018-10-17T07:36:49.399Z,95795.2
2018-10-17T07:37:51.828Z,95797.6
2018-10-17T07:38:54.256Z,95798.3
2018-10-17T07:39:56.399Z,95797.8
2018-10-17T07:40:58.574Z,95795.2
2018-10-17T07:42:01.282Z,95796.8
2018-10-17T07:43:03.830Z,95794
2018-10-17T07:44:06.254Z,95799.1
2018-10-17T07:45:08.680Z,95796.5
2018-10-17T07:46:11.104Z,95796.8
2018-10-17T07:47:13.534Z,95798.6
2018-10-17T07:48:16.341Z,95798.3
2018-10-17T07:49:18.230Z,95800.5
2018-10-17T07:50:20.656Z,95800
2018-10-17T07:51:23.091Z,95805.2
2018-10-17T07:52:25.225Z,95801.2
2018-10-17T07:53:28.002Z,95806.8
2018-10-17T07:54:30.578Z,95805.5
2018-10-17T07:55:33.018Z,95805.6
2018-10-17T07:56:35.173Z,95810.5
2018-10-17T07:57:37.041Z,95814
2018-10-17T07:58:39.465Z,95810.2
2018-10-17T07:59:41.847Z,95818.4
2018-10-17T08:00:44.346Z,95814
2018-10-17T08:01:46.512Z,95808.6
2018-10-17T08:02:48.670Z,95810.2
2018-10-17T08:03:50.825Z,95808.6
2018-10-17T08:04:52.956Z,95805.5
2018-10-17T08:05:55.513Z,95806.6
2018-10-17T08:06:57.951Z,95805.6
2018-10-17T08:08:00.380Z,95804.5
2018-10-17T08:09:02.896Z,95801.4
2018-10-17T08:10:05.527Z,95804.6
2018-10-17T08:11:07.696Z,95803.8
2018-10-17T08:12:10.558Z,95804.4
2018-10-17T08:13:13.088Z,95806.5
2018-10-17T08:14:15.685Z,95805.8
2018-10-17T08:15:17.594Z,95804.2
2018-10-17T08:16:19.749Z,95798.7
2018-10-17T08:17:22.185Z,95802.7
2018-10-17T08:18:24.342Z,95801.7
2018-10-17T08:19:26.501Z,95803.2
2018-10-17T08:20:28.364Z,95800.9
2018-10-17T08:21:31.140Z,95800.5
2018-10-17T08:22:33.836Z,95801.9
2018-10-17T08:23:35.999Z,95803
2018-10-17T08:24:38.435Z,95798.3
2018-10-17T08:25:40.876Z,95801.5
2018-10-17T08:26:43.319Z,95798.1
2018-10-17T08:27:45.750Z,95798.4
2018-10-17T08:28:48.189Z,95798
2018-10-17T08:29:50.628Z,95800.4
2018-10-17T08:30:53.098Z,95799.1
2018-10-17T08:31:55.530Z,95799.4
2018-10-17T08:32:57.964Z,95798.7
2018-10-17T08:34:00.405Z,95796.8
2018-10-17T08:35:02.830Z,95798.5
2018-10-17T08:36:06.539Z,95795.5
2018-10-17T08:37:11.514Z,95797.5
2018-10-17T08:38:13.812Z,95797.7
2018-10-17T08:39:16.247Z,95797.9
2018-10-17T08:40:18.670Z,95796.9
2018-10-17T08:41:21.318Z,95794.8
2018-10-17T08:42:23.793Z,95792
2018-10-17T08:43:26.238Z,95792.3
2018-10-17T08:44:28.675Z,95788.9
2018-10-17T08:45:31.102Z,95795.6
2018-10-17T08:46:33.540Z,95796.3
2018-10-17T08:47:35.401Z,95796
2018-10-17T08:48:37.840Z,95795.5
2018-10-17T08:49:39.996Z,95793.6
2018-10-17T08:50:42.903Z,95796.1
2018-10-17T08:51:45.044Z,95796.2
2018-10-17T08:52:47.477Z,95794.4
2018-10-17T08:53:49.910Z,95794.9
2018-10-17T08:54:52.082Z,95792.2
2018-10-17T08:55:54.346Z,95795.9
2018-10-17T08:56:56.560Z,95798.7
2018-10-17T08:57:59.581Z,95795.5
2018-10-17T08:59:02.129Z,95799
2018-10-17T09:00:04.294Z,95798.6
2018-10-17T09:01:06.175Z,95795.1
2018-10-17T09:02:08.862Z,95794.9
2018-10-17T09:03:11.009Z,95792.8
2018-10-17T09:04:13.447Z,95796.1
2018-10-17T09:05:15.889Z,95794.3
2018-10-17T09:06:18.547Z,95794.4
2018-10-17T09:07:21.274Z,95793.1
2018-10-17T09:08:24.088Z,95793.9
2018-10-17T09:09:26.739Z,95792.9
2018-10-17T09:10:28.899Z,95798
2018-10-17T09:11:31.320Z,95794.9
2018-10-17T09:12:33.746Z,95791
2018-10-17T09:13:36.731Z,95792.2
2018-10-17T09:14:39.420Z,95789.8
2018-10-17T09:15:41.844Z,95791.2
2018-10-17T09:16:44.445Z,95793.3
2018-10-17T09:17:47.126Z,95790.5
2018-10-17T09:18:49.564Z,95791.3
2018-10-17T09:19:53.007Z,95788.8
2018-10-17T09:20:58.880Z,95790.5
2018-10-17T09:22:03.717Z,95789.5
2018-10-17T09:23:06.587Z,95791.1
2018-10-17T09:24:09.278Z,95788.7
2018-10-17T09:25:11.896Z,95785.5
2018-10-17T09:26:14.449Z,95787.6
2018-10-17T09:27:16.874Z,95789.1
2018-10-17T09:28:19.631Z,95790.3
2018-10-17T09:29:22.306Z,95784.9
2018-10-17T09:30:25.765Z,95785.8
2018-10-17T09:31:28.464Z,95780.3
2018-10-17T09:32:30.612Z,95782.3
2018-10-17T09:33:33.052Z,95779.4
2018-10-17T09:34:35.477Z,95783.5
2018-10-17T09:35:37.941Z,95785.1
2018-10-17T09:36:40.118Z,95789
2018-10-17T09:37:42.545Z,95784.4
2018-10-17T09:38:44.984Z,95784.8
2018-10-17T09:39:47.425Z,95783
2018-10-17T09:40:49.576Z,95785.9
2018-10-17T09:41:52.120Z,95781.5
2018-10-17T09:42:54.595Z,95775.8
2018-10-17T09:43:56.750Z,95780.3
2018-10-17T09:44:59.181Z,95780.3
2018-10-17T09:46:01.813Z,95779.4
2018-10-17T09:47:03.974Z,95781.7
2018-10-17T09:48:06.292Z,95776.8
2018-10-17T09:49:08.260Z,95776.3
2018-10-17T09:50:10.775Z,95773.9
2018-10-17T09:51:13.206Z,95777.2
2018-10-17T09:52:16.076Z,95777.4
2018-10-17T09:53:18.972Z,95772.7
2018-10-17T09:54:21.665Z,95774.8
2018-10-17T09:55:24.096Z,95771.7
2018-10-17T09:56:26.248Z,95770.9
2018-10-17T09:57:28.419Z,95770.5
2018-10-17T09:58:30.587Z,95767.4
2018-10-17T09:59:32.760Z,95768.9
2018-10-17T10:00:35.198Z,95766.6
2018-10-17T10:01:37.657Z,95766.2
2018-10-17T10:02:40.067Z,95763.5
2018-10-17T10:03:41.949Z,95766.2
2018-10-17T10:04:44.397Z,95767.9
2018-10-17T10:05:46.268Z,95764.8
2018-10-17T10:06:48.768Z,95764.1
2018-10-17T10:07:50.911Z,95764.4
2018-10-17T10:08:53.062Z,95763.6
2018-10-17T10:09:55.680Z,95762.6
2018-10-17T10:10:58.562Z,95764.1
2018-10-17T10:12:00.966Z,95763.2
2018-10-17T10:13:03.170Z,95764.2
2018-10-17T10:14:05.312Z,95762.1
2018-10-17T10:15:07.538Z,95763.3
2018-10-17T10:16:10.325Z,95759.2
2018-10-17T10:17:12.977Z,95759.9
2018-10-17T10:18:15.405Z,95759.9
2018-10-17T10:19:17.828Z,95757.5
2018-10-17T10:20:20.269Z,95759.3
2018-10-17T10:21:22.722Z,95759
2018-10-17T10:22:24.880Z,95756
2018-10-17T10:23:27.522Z,95755.4
2018-10-17T10:24:30.043Z,95754.6
2018-10-17T10:25:32.198Z,95755.1
2018-10-17T10:26:34.087Z,95754.5
2018-10-17T10:27:36.234Z,95754.2
2018-10-17T10:28:39.169Z,95753.3
2018-10-17T10:29:42.129Z,95751.5
2018-10-17T10:30:44.716Z,95752.8
2018-10-17T10:31:47.147Z,95749
2018-10-17T10:32:49.303Z,95751.7
2018-10-17T10:33:51.786Z,95750.3
2018-10-17T10:34:54.221Z,95749.6
2018-10-17T10:35:56.778Z,95745.7
2018-10-17T10:36:58.895Z,95747.5
2018-10-17T10:38:01.327Z,95743.8
2018-10-17T10:39:03.757Z,95744.6
2018-10-17T10:40:06.173Z,95744.7
2018-10-17T10:41:08.732Z,95744.5
2018-10-17T10:42:11.203Z,95744.8
2018-10-17T10:43:13.730Z,95740.7
2018-10-17T10:44:16.696Z,95740.7
2018-10-17T10:45:19.312Z,95739.8
2018-10-17T10:46:22.231Z,95739.3
2018-10-17T10:47:24.404Z,95736
2018-10-17T10:48:26.561Z,95732.4
2018-10-17T10:49:29.000Z,95731
2018-10-17T10:50:31.435Z,95732.8
2018-10-17T10:51:34.139Z,95729.7
2018-10-17T10:52:36.754Z,95731.3
2018-10-17T10:53:39.189Z,95724.9
2018-10-17T10:54:41.620Z,95728.8
2018-10-17T10:55:44.046Z,95730.3
2018-10-17T10:56:46.482Z,95725.6
2018-10-17T10:57:48.918Z,95725.8
2018-10-17T10:58:52.618Z,95722.3
2018-10-17T10:59:55.361Z,95725.1
2018-10-17T11:00:57.479Z,95720.4
2018-10-17T11:01:59.801Z,95717.9
2018-10-17T11:03:02.564Z,95722.3
2018-10-17T11:04:04.755Z,95716.7
2018-10-17T11:05:07.702Z,95720
2018-10-17T11:06:10.221Z,95711.8
2018-10-17T11:07:12.659Z,95715.1
2018-10-17T11:08:15.711Z,95715.1
2018-10-17T11:09:18.360Z,95718.2
2018-10-17T11:10:20.792Z,95712.9
2018-10-17T11:11:23.225Z,95718.2
2018-10-17T11:12:25.658Z,95708.1
2018-10-17T11:13:28.090Z,95709
2018-10-17T11:14:31.107Z,95702.9
2018-10-17T11:15:33.910Z,95705.6
2018-10-17T11:16:36.347Z,95704.6
2018-10-17T11:17:38.769Z,95704.5
2018-10-17T11:18:40.666Z,95703.7
2018-10-17T11:19:42.829Z,95695.4
2018-10-17T11:20:45.041Z,95698
2018-10-17T11:21:47.536Z,95697.3
2018-10-17T11:22:49.782Z,95700.7
2018-10-17T11:23:51.954Z,95696.2
2018-10-17T11:24:54.388Z,95694.8
2018-10-17T11:25:56.823Z,95693.3
2018-10-17T11:26:59.076Z,95694.3
2018-10-17T11:28:00.949Z,95695.4
2018-10-17T11:29:03.359Z,95693.3
2018-10-17T11:30:05.548Z,95693.5
2018-10-17T11:31:07.989Z,95691.2
2018-10-17T11:32:10.423Z,95693.3
2018-10-17T11:33:13.446Z,95695.8
2018-10-17T11:34:16.148Z,95692.8
2018-10-17T11:35:19.315Z,95689.5
2018-10-17T11:36:21.945Z,95693.6
2018-10-17T11:37:24.827Z,95691.7
2018-10-17T11:38:27.371Z,95687.7
2018-10-17T11:39:29.801Z,95686.8
2018-10-17T11:40:32.568Z,95689.7
2018-10-17T11:41:35.779Z,95687.6
2018-10-17T11:42:38.578Z,95688.1
2018-10-17T11:43:41.009Z,95684.6
2018-10-17T11:44:42.876Z,95685.1
2018-10-17T11:45:45.316Z,95678.9
2018-10-17T11:46:47.485Z,95683.1
2018-10-17T11:47:50.132Z,95680.8
2018-10-17T11:48:52.727Z,95679.6
2018-10-17T11:49:55.157Z,95677.8
2018-10-17T11:50:57.761Z,95678.5
2018-10-17T11:52:00.189Z,95678.5
2018-10-17T11:53:02.987Z,95674.9
2018-10-17T11:54:05.465Z,95676.5
2018-10-17T11:55:07.624Z,95677.2
2018-10-17T11:56:10.069Z,95676.1
2018-10-17T11:57:12.886Z,95673
2018-10-17T11:58:15.200Z,95670.8
2018-10-17T11:59:18.353Z,95673.5
2018-10-17T12:00:20.519Z,95671.9
2018-10-17T12:01:22.671Z,95670.3
2018-10-17T12:02:24.828Z,95670
2018-10-17T12:03:27.761Z,95670
2018-10-17T12:04:31.519Z,95673.8
2018-10-17T12:05:35.547Z,95670.9
2018-10-17T12:06:39.193Z,95673.4
2018-10-17T12:07:41.836Z,95667
2018-10-17T12:08:44.268Z,95669.8
2018-10-17T12:09:46.698Z,95666.7
2018-10-17T12:10:49.131Z,95667.9
2018-10-17T12:11:51.548Z,95669
2018-10-17T12:12:54.239Z,95668.8
2018-10-17T12:13:56.409Z,95669.7
2018-10-17T12:14:58.376Z,95670.1
2018-10-17T12:16:00.910Z,95670.9
2018-10-17T12:17:03.372Z,95665.9
2018-10-17T12:18:06.161Z,95669.3
2018-10-17T12:19:09.243Z,95669.1
2018-10-17T12:20:11.433Z,95665.1
2018-10-17T12:21:14.716Z,95664.7
2018-10-17T12:22:17.299Z,95669
2018-10-17T12:23:19.743Z,95665.1
2018-10-17T12:24:21.897Z,95663.9
2018-10-17T12:25:24.070Z,95662.4
2018-10-17T12:26:26.500Z,95662.5
2018-10-17T12:27:27.827Z,95663.3
2018-10-17T12:28:29.673Z,95660.3
2018-10-17T12:29:32.089Z,95657
2018-10-17T12:30:34.523Z,95655.7
2018-10-17T12:31:36.959Z,95657.5
2018-10-17T12:32:38.846Z,95658
2018-10-17T12:33:41.007Z,95654.9
2018-10-17T12:34:43.450Z,95655.2
2018-10-17T12:35:45.889Z,95657.1
2018-10-17T12:36:48.063Z,95655.3
2018-10-17T12:37:50.485Z,95656.5
2018-10-17T12:38:53.290Z,95649.8